Time;durP1;ratioP1;P1;durP2;ratioP2;P2;SDS_P1;SDS_P2;PMS_P1;PMS_P2;Temp;Humidity;BMP_temperature;BMP_pressure;BME280_temperature;BME280_humidity;BME280_pressure;Samples;Min_cycle;Max_cycle;Signal;HPM_P1;HPM_P2
2023/07/11 00:01:41;;;;;;;8.20;3.10;;;;;;;;;;5068890;28;20033;-63
2023/07/11 00:04:06;;;;;;;5.40;3.85;;;;;;;;;;5069795;28;20021;-62
2023/07/11 00:06:32;;;;;;;7.18;3.60;;;;;;;;;;5068065;28;20032;-62
2023/07/11 00:08:57;;;;;;;8.10;3.03;;;;;;;;;;5069456;28;20028;-62
2023/07/11 00:11:22;;;;;;;3.13;2.83;;;;;;;;;;5068744;28;20036;-62
2023/07/11 00:13:50;;;;;;;6.72;3.75;;;;;;;;;;5072338;28;20375;-62
2023/07/11 00:16:16;;;;;;;4.40;2.50;;;;;;;;;;5071670;28;20029;-62
2023/07/11 00:18:41;;;;;;;8.23;4.55;;;;;;;;;;5073349;28;20105;-63
2023/07/11 00:21:07;;;;;;;29.07;5.20;;;;;;;;;;5071605;28;20071;-62
2023/07/11 00:23:32;;;;;;;6.38;4.43;;;;;;;;;;5073734;28;20443;-63
2023/07/11 00:25:57;;;;;;;5.15;3.28;;;;;;;;;;5072820;28;20503;-62
2023/07/11 00:28:22;;;;;;;4.53;2.70;;;;;;;;;;5071419;28;20045;-63
2023/07/11 00:30:48;;;;;;;8.53;3.87;;;;;;;;;;5073608;28;20040;-63
2023/07/11 00:33:13;;;;;;;7.45;3.13;;;;;;;;;;5071542;28;20455;-63
2023/07/11 00:35:39;;;;;;;4.55;2.90;;;;;;;;;;5072453;28;20080;-63
2023/07/11 00:38:04;;;;;;;7.47;5.75;;;;;;;;;;5071133;28;20033;-63
2023/07/11 00:40:30;;;;;;;7.88;3.95;;;;;;;;;;5072983;28;20386;-63
2023/07/11 00:42:55;;;;;;;9.77;3.65;;;;;;;;;;5071056;28;20037;-63
2023/07/11 00:45:39;;;;;;;10.35;3.25;;;;;;;;;;5060625;28;20043;-63
2023/07/11 00:48:04;;;;;;;5.95;2.90;;;;;;;;;;5051382;28;20037;-63
2023/07/11 00:50:29;;;;;;;11.10;4.47;;;;;;;;;;5052778;28;20025;-63
2023/07/11 00:52:55;;;;;;;4.93;2.80;;;;;;;;;;5051212;28;20495;-63
2023/07/11 00:55:21;;;;;;;5.93;3.70;;;;;;;;;;5053116;28;20100;-63
2023/07/11 00:57:46;;;;;;;8.18;2.47;;;;;;;;;;5050921;28;20310;-63
2023/07/11 01:00:11;;;;;;;7.82;3.90;;;;;;;;;;5052524;28;20025;-63
2023/07/11 01:02:36;;;;;;;6.80;3.03;;;;;;;;;;5051457;28;20052;-63
2023/07/11 01:05:03;;;;;;;7.95;3.88;;;;;;;;;;5051906;28;20476;-63
2023/07/11 01:07:30;;;;;;;4.20;3.63;;;;;;;;;;5051351;28;20087;-63
2023/07/11 01:09:55;;;;;;;6.93;3.47;;;;;;;;;;5052160;28;20021;-63
2023/07/11 01:12:21;;;;;;;5.77;2.77;;;;;;;;;;5050994;28;20029;-63
2023/07/11 01:14:47;;;;;;;6.95;3.67;;;;;;;;;;5052139;28;20407;-63
2023/07/11 01:17:18;;;;;;;8.38;3.33;;;;;;;;;;5050827;28;20055;-63
2023/07/11 01:19:43;;;;;;;8.18;3.45;;;;;;;;;;5051990;28;20468;-63
2023/07/11 01:22:08;;;;;;;4.67;3.27;;;;;;;;;;5050851;28;20056;-63
2023/07/11 01:24:33;;;;;;;9.15;6.50;;;;;;;;;;5064597;28;20020;-63
2023/07/11 01:26:58;;;;;;;12.77;4.93;;;;;;;;;;5069914;28;20037;-63
2023/07/11 01:29:24;;;;;;;4.80;3.58;;;;;;;;;;5071786;28;20042;-63
2023/07/11 01:31:49;;;;;;;8.18;3.22;;;;;;;;;;5070757;28;20043;-62
2023/07/11 01:34:14;;;;;;;8.45;4.30;;;;;;;;;;5071386;28;20028;-62
2023/07/11 01:36:39;;;;;;;14.35;3.50;;;;;;;;;;5070544;28;20127;-63
2023/07/11 01:39:06;;;;;;;6.90;3.67;;;;;;;;;;5072003;28;20028;-64
2023/07/11 01:41:31;;;;;;;10.75;3.75;;;;;;;;;;5070077;28;20123;-63
2023/07/11 01:43:57;;;;;;;7.50;4.00;;;;;;;;;;5071069;28;20108;-63
2023/07/11 01:46:22;;;;;;;6.32;3.63;;;;;;;;;;5070209;28;20041;-63
2023/07/11 01:48:47;;;;;;;9.45;3.50;;;;;;;;;;5071832;28;20555;-63
2023/07/11 01:51:12;;;;;;;6.63;4.00;;;;;;;;;;5068426;28;20757;-63
2023/07/11 01:53:37;;;;;;;7.83;3.13;;;;;;;;;;5071429;28;20028;-63
2023/07/11 01:56:03;;;;;;;8.20;3.83;;;;;;;;;;5069625;28;20024;-63
2023/07/11 01:58:29;;;;;;;8.70;3.38;;;;;;;;;;5071821;28;20477;-63
2023/07/11 02:00:55;;;;;;;5.55;4.18;;;;;;;;;;5070285;28;20422;-64
2023/07/11 02:03:20;;;;;;;9.07;4.40;;;;;;;;;;5069559;28;20039;-65
2023/07/11 02:05:46;;;;;;;7.65;4.13;;;;;;;;;;5071322;28;20020;-64
2023/07/11 02:08:11;;;;;;;7.67;4.00;;;;;;;;;;5069739;28;20086;-64
2023/07/11 02:10:36;;;;;;;5.03;2.72;;;;;;;;;;5071255;28;20384;-64
2023/07/11 02:13:01;;;;;;;6.43;3.38;;;;;;;;;;5069121;28;20122;-65
2023/07/11 02:15:26;;;;;;;5.80;4.22;;;;;;;;;;5071034;28;20027;-65
2023/07/11 02:17:51;;;;;;;4.97;3.00;;;;;;;;;;5069837;28;20511;-65
2023/07/11 02:20:17;;;;;;;6.35;5.32;;;;;;;;;;5070639;28;20816;-64
2023/07/11 02:22:42;;;;;;;7.80;4.30;;;;;;;;;;5069833;28;20115;-64
2023/07/11 02:25:07;;;;;;;8.15;3.78;;;;;;;;;;5071121;28;20021;-65
2023/07/11 02:27:32;;;;;;;4.50;3.83;;;;;;;;;;5069544;28;20377;-64
2023/07/11 02:29:57;;;;;;;11.30;4.83;;;;;;;;;;5070745;28;20472;-64
2023/07/11 02:32:23;;;;;;;21.30;6.30;;;;;;;;;;5069725;28;20442;-64
2023/07/11 02:34:48;;;;;;;6.73;4.83;;;;;;;;;;5069981;28;20020;-63
2023/07/11 02:37:13;;;;;;;5.97;4.03;;;;;;;;;;5069163;28;20406;-64
2023/07/11 02:39:38;;;;;;;13.27;4.35;;;;;;;;;;5070992;28;20023;-66
2023/07/11 02:42:03;;;;;;;4.00;3.58;;;;;;;;;;5068974;28;20487;-67
2023/07/11 02:44:29;;;;;;;7.63;4.03;;;;;;;;;;5069372;28;20028;-66
2023/07/11 02:46:54;;;;;;;4.27;3.30;;;;;;;;;;5069293;28;20028;-66
2023/07/11 02:49:20;;;;;;;5.22;3.25;;;;;;;;;;5070565;28;20073;-66
2023/07/11 02:51:45;;;;;;;8.52;4.32;;;;;;;;;;5069465;28;20059;-67
2023/07/11 02:54:10;;;;;;;14.65;4.07;;;;;;;;;;5070531;28;20440;-66
2023/07/11 02:56:35;;;;;;;8.03;5.93;;;;;;;;;;5069060;28;20033;-65
2023/07/11 02:59:01;;;;;;;5.30;4.33;;;;;;;;;;5070532;28;20116;-65
2023/07/11 03:01:30;;;;;;;6.10;3.55;;;;;;;;;;5069355;28;20465;-65
2023/07/11 03:03:55;;;;;;;;;;;;;;;;;;5070701;28;20023;-66
2023/07/11 03:06:20;;;;;;;9.60;5.68;;;;;;;;;;5069416;28;19908;-65
2023/07/11 03:08:45;;;;;;;8.47;5.10;;;;;;;;;;5070420;28;20111;-65
2023/07/11 03:11:10;;;;;;;16.90;5.33;;;;;;;;;;5068729;28;20518;-65
2023/07/11 03:13:36;;;;;;;10.67;5.27;;;;;;;;;;5070365;28;20137;-65
2023/07/11 03:16:02;;;;;;;6.28;4.50;;;;;;;;;;5070326;28;20021;-65
2023/07/11 03:18:27;;;;;;;10.10;4.15;;;;;;;;;;5068973;28;20029;-65
2023/07/11 03:20:56;;;;;;;8.03;4.63;;;;;;;;;;5070628;28;20456;-65
2023/07/11 03:23:21;;;;;;;10.90;5.60;;;;;;;;;;5069030;28;20458;-65
2023/07/11 03:25:46;;;;;;;5.18;4.35;;;;;;;;;;5070194;28;20012;-66
2023/07/11 03:28:12;;;;;;;8.43;5.33;;;;;;;;;;5068746;28;20079;-65
2023/07/11 03:30:37;;;;;;;10.05;5.30;;;;;;;;;;5070701;28;20093;-65
2023/07/11 03:33:02;;;;;;;12.27;4.47;;;;;;;;;;5068520;28;20029;-65
2023/07/11 03:35:28;;;;;;;11.27;5.97;;;;;;;;;;5070381;28;20131;-65
2023/07/11 03:37:53;;;;;;;6.78;4.75;;;;;;;;;;5068892;28;20394;-65
2023/07/11 03:40:18;;;;;;;7.87;5.07;;;;;;;;;;5069879;28;20016;-65
2023/07/11 03:42:43;;;;;;;8.33;5.10;;;;;;;;;;5068796;28;20439;-66
2023/07/11 03:45:09;;;;;;;6.38;3.95;;;;;;;;;;5069843;28;20086;-65
2023/07/11 03:47:34;;;;;;;10.15;5.18;;;;;;;;;;5070955;28;20032;-65
2023/07/11 03:49:59;;;;;;;7.53;4.82;;;;;;;;;;5073884;28;20352;-63
2023/07/11 03:52:24;;;;;;;11.13;5.27;;;;;;;;;;5072530;28;20041;-63
2023/07/11 03:54:49;;;;;;;13.27;5.77;;;;;;;;;;5073256;28;20093;-63
2023/07/11 03:57:15;;;;;;;8.73;4.70;;;;;;;;;;5072324;28;20044;-62
2023/07/11 03:59:40;;;;;;;12.02;4.60;;;;;;;;;;5073883;28;20437;-63
2023/07/11 04:02:05;;;;;;;8.70;5.22;;;;;;;;;;5071747;28;20033;-63
2023/07/11 04:04:30;;;;;;;8.30;5.27;;;;;;;;;;5073797;28;20017;-63
2023/07/11 04:06:56;;;;;;;18.15;5.20;;;;;;;;;;5072192;28;20024;-63
2023/07/11 04:09:21;;;;;;;8.43;3.83;;;;;;;;;;5073292;28;20016;-63
2023/07/11 04:11:46;;;;;;;5.43;4.47;;;;;;;;;;5071836;28;20066;-62
2023/07/11 04:14:11;;;;;;;10.05;5.22;;;;;;;;;;5072224;28;20116;-63
2023/07/11 04:16:36;;;;;;;4.93;4.38;;;;;;;;;;5070798;28;20028;-64
2023/07/11 04:19:02;;;;;;;12.00;4.00;;;;;;;;;;5072047;28;20517;-64
2023/07/11 04:21:27;;;;;;;11.13;5.97;;;;;;;;;;5072042;28;20025;-62
2023/07/11 04:23:52;;;;;;;9.50;4.10;;;;;;;;;;5072452;28;20070;-61
2023/07/11 04:26:17;;;;;;;8.30;4.27;;;;;;;;;;5068208;28;20040;-62
2023/07/11 04:28:43;;;;;;;8.20;5.83;;;;;;;;;;5073661;28;20485;-62
2023/07/11 04:31:08;;;;;;;5.37;3.70;;;;;;;;;;5071678;28;20099;-62
2023/07/11 04:33:33;;;;;;;6.30;4.32;;;;;;;;;;5073116;28;20017;-62
2023/07/11 04:36:09;;;;;;;6.33;4.63;;;;;;;;;;5073033;28;20040;-62
2023/07/11 04:38:34;;;;;;;11.18;5.32;;;;;;;;;;5071771;28;20041;-62
2023/07/11 04:41:03;;;;;;;9.73;5.45;;;;;;;;;;5072209;28;20037;-62
2023/07/11 04:43:29;;;;;;;9.43;4.68;;;;;;;;;;5071410;28;20123;-62
2023/07/11 04:45:55;;;;;;;5.20;3.97;;;;;;;;;;5072972;28;20013;-62
2023/07/11 04:48:20;;;;;;;8.20;3.65;;;;;;;;;;5071335;28;20048;-62
2023/07/11 04:50:45;;;;;;;12.43;5.57;;;;;;;;;;5072883;28;20016;-62
2023/07/11 04:53:11;;;;;;;7.90;4.15;;;;;;;;;;5071317;28;20032;-62
2023/07/11 04:55:36;;;;;;;8.57;3.63;;;;;;;;;;5072935;28;20027;-62
2023/07/11 04:58:01;;;;;;;8.02;4.10;;;;;;;;;;5070459;28;20166;-62
2023/07/11 05:00:26;;;;;;;9.60;5.03;;;;;;;;;;5073052;28;20475;-62
2023/07/11 05:02:51;;;;;;;12.45;5.68;;;;;;;;;;5071042;28;20040;-63
2023/07/11 05:05:16;;;;;;;6.07;4.37;;;;;;;;;;5072552;28;20459;-62
2023/07/11 05:07:42;;;;;;;6.07;3.88;;;;;;;;;;5071287;28;20040;-62
2023/07/11 05:10:07;;;;;;;7.60;3.57;;;;;;;;;;5072163;28;20063;-62
2023/07/11 05:12:32;;;;;;;7.93;4.90;;;;;;;;;;5071300;28;20040;-62
2023/07/11 05:14:57;;;;;;;7.90;3.45;;;;;;;;;;5072291;28;20016;-62
2023/07/11 05:17:23;;;;;;;9.10;5.07;;;;;;;;;;5070650;28;20033;-62
2023/07/11 05:19:48;;;;;;;7.90;3.87;;;;;;;;;;5072604;28;20366;-62
2023/07/11 05:22:13;;;;;;;6.57;4.93;;;;;;;;;;5070833;28;21058;-62
2023/07/11 05:24:38;;;;;;;4.95;3.97;;;;;;;;;;5071822;28;20048;-63
2023/07/11 05:27:03;;;;;;;7.75;3.25;;;;;;;;;;5070719;28;20036;-62
2023/07/11 05:29:30;;;;;;;5.80;4.00;;;;;;;;;;5072362;28;20462;-63
2023/07/11 05:31:55;;;;;;;5.35;3.17;;;;;;;;;;5070242;28;20024;-63
2023/07/11 05:34:20;;;;;;;8.53;2.97;;;;;;;;;;5072390;28;20142;-62
2023/07/11 05:36:45;;;;;;;8.93;3.90;;;;;;;;;;5070428;28;20044;-62
2023/07/11 05:39:13;;;;;;;5.65;3.20;;;;;;;;;;5071545;28;20107;-62
2023/07/11 05:41:44;;;;;;;4.88;3.67;;;;;;;;;;5070588;28;20549;-62
2023/07/11 05:44:09;;;;;;;5.82;3.55;;;;;;;;;;5071919;28;20051;-62
2023/07/11 05:46:34;;;;;;;4.07;3.67;;;;;;;;;;5070143;28;20052;-62
2023/07/11 05:48:59;;;;;;;10.00;3.63;;;;;;;;;;5071617;28;20509;-62
2023/07/11 05:51:25;;;;;;;4.17;3.80;;;;;;;;;;5070093;28;20048;-61
2023/07/11 05:53:50;;;;;;;7.25;4.15;;;;;;;;;;5071682;28;20964;-62
2023/07/11 05:56:17;;;;;;;5.90;3.83;;;;;;;;;;5069827;28;20430;-62
2023/07/11 05:58:43;;;;;;;5.90;3.72;;;;;;;;;;5071505;28;20020;-62
2023/07/11 06:01:09;;;;;;;14.25;4.45;;;;;;;;;;5069542;28;20074;-61
2023/07/11 06:03:34;;;;;;;7.63;5.72;;;;;;;;;;5071602;28;20514;-62
2023/07/11 06:06:03;;;;;;;7.07;4.17;;;;;;;;;;5071030;28;20096;-61
2023/07/11 06:08:29;;;;;;;14.68;3.35;;;;;;;;;;5050774;28;20029;-61
2023/07/11 06:10:58;;;;;;;6.53;3.60;;;;;;;;;;5052750;28;20039;-61
2023/07/11 06:13:24;;;;;;;14.57;4.85;;;;;;;;;;5049854;28;20044;-61
2023/07/11 06:15:49;;;;;;;4.38;3.35;;;;;;;;;;5050443;28;20017;-61
2023/07/11 06:18:14;;;;;;;7.53;3.95;;;;;;;;;;5049436;28;20068;-61
2023/07/11 06:20:39;;;;;;;4.28;2.85;;;;;;;;;;5050849;28;20017;-61
2023/07/11 06:23:05;;;;;;;9.38;3.20;;;;;;;;;;5048575;28;20056;-62
2023/07/11 06:25:30;;;;;;;9.07;3.10;;;;;;;;;;5049469;28;20163;-61
2023/07/11 06:27:55;;;;;;;3.67;3.13;;;;;;;;;;5048424;28;20033;-62
2023/07/11 06:30:20;;;;;;;4.17;2.50;;;;;;;;;;5047005;28;20024;-62
2023/07/11 06:32:45;;;;;;;8.90;3.35;;;;;;;;;;5063177;28;20447;-62
2023/07/11 06:35:10;;;;;;;9.63;3.05;;;;;;;;;;5070565;28;20126;-62
2023/07/11 06:37:36;;;;;;;7.22;3.28;;;;;;;;;;5068890;28;20067;-62
2023/07/11 06:40:06;;;;;;;3.22;2.92;;;;;;;;;;5070974;28;20055;-62
2023/07/11 06:42:31;;;;;;;5.35;3.38;;;;;;;;;;5069612;28;20025;-62
2023/07/11 06:44:56;;;;;;;8.60;3.13;;;;;;;;;;5067805;28;20078;-62
2023/07/11 06:47:21;;;;;;;7.88;4.07;;;;;;;;;;5066138;28;20128;-62
2023/07/11 06:49:47;;;;;;;12.52;3.88;;;;;;;;;;5070796;28;20028;-62
2023/07/11 06:52:12;;;;;;;9.30;3.03;;;;;;;;;;5061127;28;20040;-62
2023/07/11 06:54:37;;;;;;;6.60;3.53;;;;;;;;;;5050485;28;20037;-62
2023/07/11 06:57:03;;;;;;;7.75;3.47;;;;;;;;;;5048972;28;20112;-62
2023/07/11 06:59:28;;;;;;;6.57;3.72;;;;;;;;;;5050329;28;20395;-62
2023/07/11 07:01:53;;;;;;;7.40;2.57;;;;;;;;;;5047762;28;20496;-62
2023/07/11 07:04:18;;;;;;;4.90;2.77;;;;;;;;;;5057646;28;20021;-62
2023/07/11 07:06:44;;;;;;;5.07;3.15;;;;;;;;;;5068840;28;20036;-62
2023/07/11 07:09:09;;;;;;;5.03;2.92;;;;;;;;;;5070629;28;20017;-62
2023/07/11 07:11:35;;;;;;;8.15;2.55;;;;;;;;;;5069258;28;20044;-62
2023/07/11 07:14:01;;;;;;;5.00;2.95;;;;;;;;;;5070038;28;20491;-62
2023/07/11 07:16:28;;;;;;;6.55;3.63;;;;;;;;;;5063668;28;20164;-61
2023/07/11 07:18:53;;;;;;;4.00;3.35;;;;;;;;;;5049053;28;20021;-62
2023/07/11 07:21:19;;;;;;;5.60;2.53;;;;;;;;;;5051588;28;20013;-65
2023/07/11 07:23:44;;;;;;;8.70;3.25;;;;;;;;;;5058823;28;20020;-62
2023/07/11 07:26:09;;;;;;;4.47;2.53;;;;;;;;;;5052455;28;20021;-61
2023/07/11 07:28:34;;;;;;;6.57;3.05;;;;;;;;;;5054532;28;20017;-62
2023/07/11 07:31:01;;;;;;;8.77;3.90;;;;;;;;;;5053768;28;20036;-62
2023/07/11 07:33:26;;;;;;;4.82;2.92;;;;;;;;;;5052844;28;20411;-62
2023/07/11 07:35:55;;;;;;;6.47;2.95;;;;;;;;;;5068389;28;20127;-62
2023/07/11 07:38:20;;;;;;;5.22;2.38;;;;;;;;;;5072435;28;20054;-62
2023/07/11 07:40:50;;;;;;;4.82;2.97;;;;;;;;;;5074281;28;20017;-62
2023/07/11 07:43:16;;;;;;;4.43;2.25;;;;;;;;;;5072660;28;20032;-62
2023/07/11 07:45:41;;;;;;;5.78;2.55;;;;;;;;;;5068093;28;20082;-62
2023/07/11 07:48:06;;;;;;;8.68;3.67;;;;;;;;;;5052412;28;20033;-62
2023/07/11 07:50:31;;;;;;;7.88;3.22;;;;;;;;;;5069971;28;20034;-62
2023/07/11 07:52:56;;;;;;;4.47;3.03;;;;;;;;;;5056047;28;20048;-62
2023/07/11 07:55:22;;;;;;;11.93;3.33;;;;;;;;;;5054189;28;20036;-64
2023/07/11 07:57:47;;;;;;;4.13;2.05;;;;;;;;;;5052488;28;20052;-63
2023/07/11 08:00:12;;;;;;;5.27;2.03;;;;;;;;;;5053459;28;20150;-64
2023/07/11 08:02:42;;;;;;;4.95;3.17;;;;;;;;;;5052588;28;20056;-64
2023/07/11 08:05:07;;;;;;;5.90;3.30;;;;;;;;;;5053943;28;20013;-64
2023/07/11 08:07:32;;;;;;;9.93;3.30;;;;;;;;;;5051990;28;20060;-64
2023/07/11 08:09:58;;;;;;;7.27;3.47;;;;;;;;;;5053434;28;20499;-64
2023/07/11 08:12:23;;;;;;;10.15;3.15;;;;;;;;;;5052768;28;20040;-64
2023/07/11 08:14:48;;;;;;;5.10;3.10;;;;;;;;;;5052185;28;20021;-64
2023/07/11 08:17:13;;;;;;;6.90;2.88;;;;;;;;;;5051916;28;20033;-62
2023/07/11 08:19:39;;;;;;;7.63;3.13;;;;;;;;;;5053429;28;20021;-62
2023/07/11 08:22:05;;;;;;;5.23;2.43;;;;;;;;;;5051638;28;20025;-62
2023/07/11 08:24:30;;;;;;;10.20;3.15;;;;;;;;;;5053535;28;20789;-62
2023/07/11 08:26:55;;;;;;;7.97;2.67;;;;;;;;;;5051807;28;20032;-62
2023/07/11 08:29:20;;;;;;;4.07;2.60;;;;;;;;;;5051807;28;20980;-65
2023/07/11 08:31:46;;;;;;;14.98;3.40;;;;;;;;;;5052038;28;20029;-62
2023/07/11 08:34:11;;;;;;;6.63;2.05;;;;;;;;;;5051799;28;20021;-62
2023/07/11 08:36:37;;;;;;;9.48;2.80;;;;;;;;;;5051228;28;20041;-62
2023/07/11 08:39:02;;;;;;;4.55;2.45;;;;;;;;;;5053020;28;20025;-62
2023/07/11 08:41:46;;;;;;;6.53;2.43;;;;;;;;;;5051700;28;20029;-65
2023/07/11 08:44:14;;;;;;;5.15;1.98;;;;;;;;;;5052516;28;20411;-62
2023/07/11 08:46:42;;;;;;;5.80;2.63;;;;;;;;;;5042837;28;20442;-63
2023/07/11 08:49:10;;;;;;;5.53;2.30;;;;;;;;;;5052882;28;20094;-62
2023/07/11 08:51:38;;;;;;;8.82;2.50;;;;;;;;;;5048375;28;20450;-62
2023/07/11 08:54:08;;;;;;;4.30;2.10;;;;;;;;;;5051902;28;20013;-62
2023/07/11 08:56:36;;;;;;;12.15;2.92;;;;;;;;;;5049204;28;20033;-62
2023/07/11 08:59:05;;;;;;;8.48;2.78;;;;;;;;;;5051047;28;20074;-62
2023/07/11 09:01:42;;;;;;;4.15;1.52;;;;;;;;;;5051445;28;20033;-62
2023/07/11 09:04:10;;;;;;;7.97;2.80;;;;;;;;;;5052063;28;20025;-62
2023/07/11 09:06:38;;;;;;;3.80;2.33;;;;;;;;;;5050793;28;20388;-62
2023/07/11 09:09:04;;;;;;;11.02;2.40;;;;;;;;;;5052620;28;20059;-62
2023/07/11 09:11:56;;;;;;;6.30;3.35;;;;;;;;;;5051408;28;20032;-62
2023/07/11 09:14:26;;;;;;;6.60;2.45;;;;;;;;;;5051009;28;20492;-62
2023/07/11 09:16:55;;;;;;;20.75;2.67;;;;;;;;;;5051188;28;20116;-62
2023/07/11 09:19:20;;;;;;;3.53;2.05;;;;;;;;;;5052564;28;20035;-62
2023/07/11 09:21:52;;;;;;;5.47;1.75;;;;;;;;;;5048677;28;20108;-62
2023/07/11 09:24:36;;;;;;;6.28;3.42;;;;;;;;;;5042716;28;20019;-63
2023/07/11 09:27:20;;;;;;;7.63;2.70;;;;;;;;;;5050308;28;20035;-62
2023/07/11 09:29:46;;;;;;;4.78;2.42;;;;;;;;;;5052479;28;20497;-62
2023/07/11 09:32:11;;;;;;;6.13;3.05;;;;;;;;;;5050162;28;20029;-63
2023/07/11 09:34:37;;;;;;;6.60;2.17;;;;;;;;;;5051848;28;20021;-62
2023/07/11 09:37:09;;;;;;;6.80;2.50;;;;;;;;;;5050062;28;20047;-62
2023/07/11 09:39:44;;;;;;;4.40;2.10;;;;;;;;;;5052094;28;20063;-62
2023/07/11 09:42:17;;;;;;;6.25;2.90;;;;;;;;;;5049926;28;20029;-62
2023/07/11 09:44:56;;;;;;;4.82;1.90;;;;;;;;;;5052096;28;20024;-62
2023/07/11 09:47:21;;;;;;;5.22;2.95;;;;;;;;;;5060723;28;20027;-62
2023/07/11 09:49:47;;;;;;;8.88;2.60;;;;;;;;;;5067291;28;20088;-62
2023/07/11 09:52:18;;;;;;;3.55;2.20;;;;;;;;;;5050213;28;20037;-62
2023/07/11 09:54:45;;;;;;;10.57;2.33;;;;;;;;;;5051942;28;20105;-62
2023/07/11 09:57:11;;;;;;;9.43;2.57;;;;;;;;;;5049743;28;20041;-62
2023/07/11 09:59:36;;;;;;;4.45;2.63;;;;;;;;;;5051972;28;20493;-62
2023/07/11 10:02:03;;;;;;;4.90;1.70;;;;;;;;;;5049933;28;20083;-62
2023/07/11 10:04:28;;;;;;;6.90;3.28;;;;;;;;;;5051317;28;20013;-63
2023/07/11 10:06:56;;;;;;;2.88;1.90;;;;;;;;;;5055438;28;20491;-62
2023/07/11 10:09:28;;;;;;;6.50;2.13;;;;;;;;;;5067305;28;20024;-62
2023/07/11 10:11:58;;;;;;;13.55;4.45;;;;;;;;;;5058392;28;20495;-62
2023/07/11 10:14:25;;;;;;;13.15;3.13;;;;;;;;;;5069933;28;20031;-62
2023/07/11 10:16:50;;;;;;;5.80;2.83;;;;;;;;;;5068039;28;20037;-62
2023/07/11 10:19:16;;;;;;;5.97;2.53;;;;;;;;;;5064770;28;20451;-63
2023/07/11 10:21:43;;;;;;;8.35;2.53;;;;;;;;;;5049807;28;20112;-62
2023/07/11 10:24:14;;;;;;;4.93;2.58;;;;;;;;;;5049326;28;20013;-62
2023/07/11 10:26:39;;;;;;;5.85;2.42;;;;;;;;;;5048537;28;20032;-62
2023/07/11 10:29:10;;;;;;;10.07;2.92;;;;;;;;;;5050831;28;20025;-62
2023/07/11 10:31:38;;;;;;;4.18;2.53;;;;;;;;;;5047992;28;20039;-62
2023/07/11 10:34:29;;;;;;;5.25;2.80;;;;;;;;;;5050110;28;20013;-62
2023/07/11 10:36:59;;;;;;;5.55;2.78;;;;;;;;;;5056778;28;20564;-60
2023/07/11 10:39:28;;;;;;;5.63;2.63;;;;;;;;;;5070738;28;20024;-60
2023/07/11 10:41:57;;;;;;;4.95;3.15;;;;;;;;;;5067455;28;20033;-62
2023/07/11 10:44:25;;;;;;;9.13;2.45;;;;;;;;;;5070023;28;20107;-63
2023/07/11 10:46:50;;;;;;;;;;;;;;;;;;5067127;28;20033;-62
2023/07/11 10:49:17;;;;;;;4.07;2.65;;;;;;;;;;5069327;28;19913;-62
2023/07/11 10:51:52;;;;;;;9.52;2.58;;;;;;;;;;5065822;28;20407;-62
2023/07/11 10:54:21;;;;;;;4.38;2.72;;;;;;;;;;5070353;28;20020;-62
2023/07/11 10:56:48;;;;;;;7.07;2.25;;;;;;;;;;5067739;28;20039;-62
2023/07/11 10:59:15;;;;;;;5.13;1.95;;;;;;;;;;5070490;28;20032;-62
2023/07/11 11:02:01;;;;;;;7.40;2.38;;;;;;;;;;5069178;28;20041;-62
2023/07/11 11:04:39;;;;;;;10.75;2.92;;;;;;;;;;5060959;28;20058;-63
2023/07/11 11:07:09;;;;;;;4.05;2.15;;;;;;;;;;5068747;28;20047;-62
2023/07/11 11:09:50;;;;;;;7.97;2.63;;;;;;;;;;5070494;28;20020;-62
2023/07/11 11:12:25;;;;;;;4.40;1.92;;;;;;;;;;5067991;28;20032;-62
2023/07/11 11:15:09;;;;;;;6.38;3.20;;;;;;;;;;5070218;28;20027;-62
2023/07/11 11:17:34;;;;;;;5.93;2.42;;;;;;;;;;5068805;28;20036;-62
2023/07/11 11:20:17;;;;;;;5.05;2.75;;;;;;;;;;5069732;28;20027;-62
2023/07/11 11:22:55;;;;;;;6.75;2.13;;;;;;;;;;5068612;28;20028;-62
2023/07/11 11:25:25;;;;;;;3.22;2.05;;;;;;;;;;5070296;28;20111;-62
2023/07/11 11:27:55;;;;;;;2.85;1.80;;;;;;;;;;5068563;28;20048;-62
2023/07/11 11:30:29;;;;;;;8.63;2.22;;;;;;;;;;5070304;28;20035;-62
2023/07/11 11:32:57;;;;;;;9.27;2.63;;;;;;;;;;5068309;28;20039;-62
2023/07/11 11:35:41;;;;;;;7.53;3.50;;;;;;;;;;5068435;28;20044;-63
2023/07/11 11:38:20;;;;;;;9.93;2.80;;;;;;;;;;5068261;28;20043;-62
2023/07/11 11:40:49;;;;;;;7.35;2.72;;;;;;;;;;5069566;28;20020;-64
2023/07/11 11:43:15;;;;;;;5.07;2.72;;;;;;;;;;5068368;28;20039;-62
2023/07/11 11:45:40;;;;;;;4.68;2.63;;;;;;;;;;5064683;28;20021;-62
2023/07/11 11:48:06;;;;;;;5.25;2.30;;;;;;;;;;5048095;28;20041;-62
2023/07/11 11:50:33;;;;;;;4.50;2.28;;;;;;;;;;5050096;28;20448;-62
2023/07/11 11:53:17;;;;;;;9.15;2.30;;;;;;;;;;5047880;28;20056;-62
2023/07/11 11:55:48;;;;;;;6.32;2.15;;;;;;;;;;5049465;28;20067;-62
2023/07/11 11:58:15;;;;;;;3.47;1.95;;;;;;;;;;5050657;28;20221;-62
2023/07/11 12:00:45;;;;;;;6.03;3.80;;;;;;;;;;5069020;28;20449;-62
2023/07/11 12:03:28;;;;;;;5.80;1.92;;;;;;;;;;5067478;28;20337;-62
2023/07/11 12:05:54;;;;;;;8.20;2.25;;;;;;;;;;5051127;28;20016;-62
2023/07/11 12:08:31;;;;;;;4.88;2.72;;;;;;;;;;5050103;28;20029;-62
2023/07/11 12:11:02;;;;;;;2.78;2.03;;;;;;;;;;5051650;28;20440;-62
2023/07/11 12:13:28;;;;;;;2.42;2.08;;;;;;;;;;5051793;28;20404;-62
2023/07/11 12:15:54;;;;;;;14.02;2.22;;;;;;;;;;5053162;28;20021;-62
2023/07/11 12:18:35;;;;;;;4.20;1.98;;;;;;;;;;5071312;28;20098;-62
2023/07/11 12:21:05;;;;;;;4.68;2.30;;;;;;;;;;5073030;28;20028;-62
2023/07/11 12:23:31;;;;;;;8.75;2.33;;;;;;;;;;5071567;28;20050;-62
2023/07/11 12:26:14;;;;;;;5.68;1.70;;;;;;;;;;5072741;28;20016;-63
2023/07/11 12:28:41;;;;;;;4.18;1.95;;;;;;;;;;5071890;28;20063;-62
2023/07/11 12:31:23;;;;;;;4.95;2.33;;;;;;;;;;5072802;28;20078;-59
2023/07/11 12:34:01;;;;;;;7.47;2.70;;;;;;;;;;5072432;28;20021;-62
2023/07/11 12:36:47;;;;;;;5.25;2.70;;;;;;;;;;5071282;28;21151;-62
2023/07/11 12:39:21;;;;;;;4.60;1.65;;;;;;;;;;5072588;28;20070;-61
2023/07/11 12:41:54;;;;;;;3.40;1.80;;;;;;;;;;5071223;28;20028;-62
2023/07/11 12:44:19;;;;;;;3.60;1.83;;;;;;;;;;5073096;28;20019;-62
2023/07/11 12:46:45;;;;;;;5.03;1.97;;;;;;;;;;5057329;28;20115;-62
2023/07/11 12:49:24;;;;;;;4.82;2.03;;;;;;;;;;5052341;28;20025;-62
2023/07/11 12:51:49;;;;;;;3.35;1.77;;;;;;;;;;5051251;28;20045;-62
2023/07/11 12:54:16;;;;;;;3.30;2.27;;;;;;;;;;5052355;28;20438;-62
2023/07/11 12:56:43;;;;;;;7.07;2.83;;;;;;;;;;5050848;28;20055;-62
2023/07/11 12:59:25;;;;;;;32.08;3.38;;;;;;;;;;5052149;28;20033;-62
2023/07/11 13:01:51;;;;;;;5.20;1.98;;;;;;;;;;5051196;28;20055;-62
2023/07/11 13:04:24;;;;;;;3.13;2.08;;;;;;;;;;5052176;28;20021;-62
2023/07/11 13:06:54;;;;;;;10.68;2.45;;;;;;;;;;5050869;28;20059;-62
2023/07/11 13:09:19;;;;;;;4.40;2.25;;;;;;;;;;5052230;28;20104;-62
2023/07/11 13:11:45;;;;;;;7.87;2.37;;;;;;;;;;5051003;28;20124;-62
2023/07/11 13:14:10;;;;;;;17.48;3.47;;;;;;;;;;5052294;28;20027;-62
2023/07/11 13:16:38;;;;;;;6.83;2.00;;;;;;;;;;5050716;28;20029;-62
2023/07/11 13:19:03;;;;;;;;;;;;;;;;;;5051806;28;20017;-62
2023/07/11 13:21:28;;;;;;;3.97;2.17;;;;;;;;;;5050695;28;19913;-62
2023/07/11 13:23:55;;;;;;;4.43;1.85;;;;;;;;;;5052118;28;20025;-62
2023/07/11 13:26:27;;;;;;;4.88;2.50;;;;;;;;;;5050506;28;20024;-62
2023/07/11 13:28:57;;;;;;;4.70;2.92;;;;;;;;;;5050427;28;20035;-62
2023/07/11 13:31:25;;;;;;;3.45;1.67;;;;;;;;;;5050610;28;20021;-62
2023/07/11 13:34:09;;;;;;;4.28;1.40;;;;;;;;;;5051866;28;20028;-62
2023/07/11 13:36:34;;;;;;;4.20;1.85;;;;;;;;;;5050000;28;20041;-62
2023/07/11 13:39:01;;;;;;;3.10;1.90;;;;;;;;;;5050960;28;20083;-62
2023/07/11 13:41:27;;;;;;;3.75;2.45;;;;;;;;;;5050601;28;20353;-62
2023/07/11 13:43:55;;;;;;;3.90;2.13;;;;;;;;;;5051674;28;20020;-62
2023/07/11 13:46:22;;;;;;;13.75;1.90;;;;;;;;;;5060472;28;20052;-62
2023/07/11 13:48:48;;;;;;;3.65;2.47;;;;;;;;;;5071449;28;20049;-62
2023/07/11 13:51:20;;;;;;;4.07;1.92;;;;;;;;;;5069786;28;20768;-61
2023/07/11 13:53:47;;;;;;;3.88;2.22;;;;;;;;;;5071094;28;20529;-62
2023/07/11 13:56:13;;;;;;;5.00;2.53;;;;;;;;;;5069695;28;20044;-63
2023/07/11 13:58:38;;;;;;;4.05;1.52;;;;;;;;;;5071447;28;20059;-62
2023/07/11 14:01:08;;;;;;;10.77;2.10;;;;;;;;;;5070732;28;20379;-62
2023/07/11 14:03:33;;;;;;;5.15;1.42;;;;;;;;;;5069989;28;20511;-62
2023/07/11 14:06:00;;;;;;;5.07;2.50;;;;;;;;;;5071402;28;20013;-62
2023/07/11 14:08:26;;;;;;;5.18;1.80;;;;;;;;;;5069614;28;20033;-62
2023/07/11 14:10:51;;;;;;;16.42;2.42;;;;;;;;;;5071239;28;20031;-62
2023/07/11 14:13:26;;;;;;;12.02;2.00;;;;;;;;;;5069366;28;20036;-62
2023/07/11 14:15:55;;;;;;;8.65;2.58;;;;;;;;;;5070908;28;20028;-62
2023/07/11 14:18:21;;;;;;;3.58;1.98;;;;;;;;;;5069218;28;20098;-62
2023/07/11 14:20:46;;;;;;;4.97;2.07;;;;;;;;;;5071140;28;20398;-62
2023/07/11 14:23:22;;;;;;;5.43;2.33;;;;;;;;;;5069225;28;20056;-62
2023/07/11 14:25:47;;;;;;;5.90;2.08;;;;;;;;;;5070876;28;20024;-62
2023/07/11 14:28:13;;;;;;;3.27;1.57;;;;;;;;;;5069317;28;20122;-62
2023/07/11 14:30:39;;;;;;;6.63;2.65;;;;;;;;;;5070587;28;20013;-62
2023/07/11 14:33:08;;;;;;;5.13;2.50;;;;;;;;;;5068376;28;20043;-62
2023/07/11 14:35:33;;;;;;;2.70;1.77;;;;;;;;;;5070815;28;20124;-62
2023/07/11 14:37:58;;;;;;;8.10;2.13;;;;;;;;;;5069187;28;20127;-62
2023/07/11 14:40:25;;;;;;;2.43;1.77;;;;;;;;;;5069909;28;20013;-62
2023/07/11 14:42:50;;;;;;;3.85;2.40;;;;;;;;;;5069156;28;20195;-62
2023/07/11 14:45:20;;;;;;;8.87;1.50;;;;;;;;;;5069990;28;20070;-62